Time;durP1;ratioP1;P1;durP2;ratioP2;P2;SDS_P1;SDS_P2;PMS_P1;PMS_P2;Temp;Humidity;BMP_temperature;BMP_pressure;BME280_temperature;BME280_humidity;BME280_pressure;Samples;Min_cycle;Max_cycle;Signal;HPM_P1;HPM_P2
2022/11/17 00:00:21;;;;;;;;;;;24.70;35.20;;;;;;490941;242;1104;-75
2022/11/17 00:02:22;;;;;;;;;;;24.60;36.10;;;;;;490915;242;1171;-74
2022/11/17 00:04:25;;;;;;;;;;;24.50;35.70;;;;;;491031;242;1128;-75
2022/11/17 00:06:25;;;;;;;;;;;24.40;36.50;;;;;;491024;242;1469;-75
2022/11/17 00:08:26;;;;;;;;;;;24.20;36.70;;;;;;490921;242;1152;-75
2022/11/17 00:10:28;;;;;;;;;;;24.00;36.50;;;;;;490889;242;1175;-75
2022/11/17 00:14:48;;;;;;;;;;;23.90;36.70;;;;;;490900;243;1300;-74
2022/11/17 00:16:50;;;;;;;;;;;23.80;37.10;;;;;;490897;242;1142;-74
2022/11/17 00:21:20;;;;;;;;;;;23.70;36.70;;;;;;490960;243;1221;-74
2022/11/17 00:23:21;;;;;;;;;;;23.80;37.20;;;;;;490854;242;1536;-74
2022/11/17 00:25:22;;;;;;;;;;;23.90;36.30;;;;;;490937;242;1166;-75
2022/11/17 00:27:24;;;;;;;;;;;24.10;36.90;;;;;;490985;242;1216;-75
2022/11/17 00:29:25;;;;;;;;;;;24.20;36.40;;;;;;490909;242;1259;-75
2022/11/17 00:34:04;;;;;;;;;;;24.80;35.70;;;;;;490957;243;1207;-75
2022/11/17 00:36:05;;;;;;;;;;;24.90;35.00;;;;;;490969;242;1199;-74
2022/11/17 00:38:15;;;;;;;;;;;25.00;35.10;;;;;;490909;242;2184;-74
2022/11/17 00:40:17;;;;;;;;;;;25.10;35.30;;;;;;490921;242;1113;-74
2022/11/17 00:42:18;;;;;;;;;;;25.10;34.80;;;;;;490892;242;1190;-74
2022/11/17 00:44:19;;;;;;;;;;;25.20;35.50;;;;;;490939;242;1242;-74
2022/11/17 00:46:21;;;;;;;;;;;25.10;35.50;;;;;;490937;242;1155;-74
2022/11/17 00:48:22;;;;;;;;;;;25.10;35.20;;;;;;490826;242;1207;-74
2022/11/17 00:50:23;;;;;;;;;;;25.00;35.30;;;;;;490908;242;1197;-74
2022/11/17 00:52:25;;;;;;;;;;;24.90;35.50;;;;;;490907;242;1110;-75
2022/11/17 00:54:26;;;;;;;;;;;24.90;35.70;;;;;;490865;242;1177;-75
2022/11/17 00:56:27;;;;;;;;;;;24.90;35.40;;;;;;490873;242;1222;-74
2022/11/17 00:58:29;;;;;;;;;;;24.80;35.90;;;;;;490886;242;2192;-74
2022/11/17 01:00:30;;;;;;;;;;;24.70;35.70;;;;;;490929;242;1211;-74
2022/11/17 01:02:31;;;;;;;;;;;24.60;36.20;;;;;;490958;242;1234;-74
2022/11/17 01:04:33;;;;;;;;;;;24.50;36.60;;;;;;490952;242;1183;-74
2022/11/17 01:06:34;;;;;;;;;;;24.30;36.20;;;;;;490831;242;1184;-74
2022/11/17 01:08:35;;;;;;;;;;;24.20;36.90;;;;;;490991;242;1280;-75
2022/11/17 01:10:37;;;;;;;;;;;24.10;36.50;;;;;;490885;242;1163;-75
2022/11/17 01:12:38;;;;;;;;;;;24.00;37.00;;;;;;490891;242;1323;-75
2022/11/17 01:14:39;;;;;;;;;;;23.90;36.70;;;;;;491023;242;1104;-75
2022/11/17 01:16:41;;;;;;;;;;;23.80;37.20;;;;;;491029;242;1193;-75
2022/11/17 01:18:42;;;;;;;;;;;23.90;36.70;;;;;;490870;242;2152;-75
2022/11/17 01:20:43;;;;;;;;;;;23.80;36.70;;;;;;490998;242;1199;-75
2022/11/17 01:22:45;;;;;;;;;;;23.70;36.90;;;;;;490935;242;1172;-75
2022/11/17 01:24:46;;;;;;;;;;;23.80;36.60;;;;;;490995;242;1241;-75
2022/11/17 01:26:49;;;;;;;;;;;23.60;36.80;;;;;;490931;242;1234;-74
2022/11/17 01:28:49;;;;;;;;;;;23.40;36.90;;;;;;490902;243;1369;-74
2022/11/17 01:30:50;;;;;;;;;;;23.40;37.50;;;;;;490898;242;1180;-74
2022/11/17 01:32:51;;;;;;;;;;;23.30;37.20;;;;;;490975;242;1200;-74
2022/11/17 01:34:52;;;;;;;;;;;23.40;37.20;;;;;;491020;242;1212;-74
2022/11/17 01:39:13;;;;;;;;;;;23.60;37.60;;;;;;490953;243;2149;-74
2022/11/17 01:41:15;;;;;;;;;;;23.80;37.20;;;;;;490966;242;1248;-74
2022/11/17 01:43:16;;;;;;;;;;;23.90;36.60;;;;;;490989;242;1200;-74
2022/11/17 01:45:17;;;;;;;;;;;24.20;36.40;;;;;;490924;242;1181;-74
2022/11/17 01:47:18;;;;;;;;;;;24.50;35.70;;;;;;490939;242;1164;-74
2022/11/17 01:49:20;;;;;;;;;;;24.70;35.20;;;;;;490895;242;1173;-74
2022/11/17 01:51:21;;;;;;;;;;;24.90;35.30;;;;;;490936;242;1252;-74
2022/11/17 01:53:23;;;;;;;;;;;25.10;34.60;;;;;;490896;242;1256;-74
2022/11/17 01:55:24;;;;;;;;;;;25.20;34.60;;;;;;490893;242;1266;-74
2022/11/17 01:57:25;;;;;;;;;;;25.30;35.00;;;;;;490937;242;1251;-74
2022/11/17 01:59:26;;;;;;;;;;;25.30;35.10;;;;;;490957;242;2188;-74
2022/11/17 02:01:28;;;;;;;;;;;25.40;34.50;;;;;;490880;242;1473;-74
2022/11/17 02:03:29;;;;;;;;;;;25.30;34.80;;;;;;490906;242;1186;-74
2022/11/17 02:05:30;;;;;;;;;;;25.30;34.60;;;;;;490815;242;1189;-75
2022/11/17 02:07:32;;;;;;;;;;;25.20;35.00;;;;;;490946;242;1192;-75
2022/11/17 02:09:33;;;;;;;;;;;25.10;34.70;;;;;;491000;242;1282;-75
2022/11/17 02:11:34;;;;;;;;;;;25.10;35.20;;;;;;491057;242;1151;-75
2022/11/17 02:13:36;;;;;;;;;;;25.00;35.10;;;;;;490889;242;1203;-75
2022/11/17 02:15:37;;;;;;;;;;;24.90;35.70;;;;;;491081;242;1227;-75
2022/11/17 02:17:38;;;;;;;;;;;24.80;35.40;;;;;;490996;242;1192;-75
2022/11/17 02:19:40;;;;;;;;;;;24.60;35.90;;;;;;490924;242;2200;-75
2022/11/17 02:21:41;;;;;;;;;;;24.50;35.70;;;;;;490912;242;1230;-75
2022/11/17 02:23:42;;;;;;;;;;;24.40;36.20;;;;;;490948;242;1161;-75
2022/11/17 02:25:44;;;;;;;;;;;24.30;36.80;;;;;;490943;242;1158;-75
2022/11/17 02:27:45;;;;;;;;;;;24.10;36.60;;;;;;490780;242;1197;-75
2022/11/17 02:29:46;;;;;;;;;;;24.00;37.00;;;;;;490863;242;1268;-75
2022/11/17 02:31:48;;;;;;;;;;;23.90;37.20;;;;;;490910;242;1191;-75
2022/11/17 02:33:49;;;;;;;;;;;23.80;36.80;;;;;;490917;242;1436;-75
2022/11/17 02:35:50;;;;;;;;;;;23.80;37.10;;;;;;490868;242;1233;-75
2022/11/17 02:37:52;;;;;;;;;;;23.80;36.80;;;;;;490951;242;1349;-74
2022/11/17 02:39:53;;;;;;;;;;;23.90;36.70;;;;;;491006;242;2149;-74
2022/11/17 02:41:54;;;;;;;;;;;24.00;36.70;;;;;;490911;242;1214;-74
2022/11/17 02:44:05;;;;;;;;;;;24.10;36.20;;;;;;490939;242;1355;-74
2022/11/17 02:46:06;;;;;;;;;;;24.20;36.50;;;;;;490890;242;1258;-74
2022/11/17 02:48:07;;;;;;;;;;;24.30;35.90;;;;;;490878;242;1213;-74
2022/11/17 02:50:09;;;;;;;;;;;24.30;36.10;;;;;;491011;242;1301;-74
2022/11/17 02:52:10;;;;;;;;;;;24.40;35.70;;;;;;490977;242;1201;-74
2022/11/17 02:54:12;;;;;;;;;;;24.40;35.50;;;;;;490943;242;1222;-74
2022/11/17 02:56:13;;;;;;;;;;;24.50;35.80;;;;;;491022;242;1257;-74
2022/11/17 02:58:14;;;;;;;;;;;24.50;35.50;;;;;;490987;242;1169;-74
2022/11/17 03:00:16;;;;;;;;;;;24.50;35.30;;;;;;490891;242;2188;-74
2022/11/17 03:02:17;;;;;;;;;;;24.50;35.50;;;;;;491043;242;1185;-74
2022/11/17 03:04:18;;;;;;;;;;;24.50;35.30;;;;;;490921;242;1265;-75
2022/11/17 03:06:20;;;;;;;;;;;24.50;35.70;;;;;;490960;242;1165;-75
2022/11/17 03:08:21;;;;;;;;;;;24.50;35.30;;;;;;490978;242;1160;-75
2022/11/17 03:10:22;;;;;;;;;;;24.50;35.50;;;;;;490973;242;1235;-74
2022/11/17 03:12:24;;;;;;;;;;;24.50;35.50;;;;;;490909;242;1115;-74
2022/11/17 03:14:25;;;;;;;;;;;24.40;35.30;;;;;;490884;242;1263;-74
2022/11/17 03:16:26;;;;;;;;;;;24.40;35.70;;;;;;490969;242;1229;-74
2022/11/17 03:18:28;;;;;;;;;;;24.40;35.50;;;;;;490991;242;1176;-75
2022/11/17 03:20:29;;;;;;;;;;;24.40;35.30;;;;;;490885;242;2196;-75
2022/11/17 03:22:30;;;;;;;;;;;24.40;35.80;;;;;;490968;242;1201;-75
2022/11/17 03:24:32;;;;;;;;;;;24.30;35.70;;;;;;490915;242;1076;-75
2022/11/17 03:26:33;;;;;;;;;;;24.20;35.50;;;;;;491036;242;1119;-75
2022/11/17 03:28:35;;;;;;;;;;;24.20;35.80;;;;;;490938;242;1151;-75
2022/11/17 03:30:36;;;;;;;;;;;24.20;35.90;;;;;;490936;242;1161;-75
2022/11/17 03:32:37;;;;;;;;;;;24.20;35.70;;;;;;490945;242;1285;-75
2022/11/17 03:34:39;;;;;;;;;;;24.10;35.80;;;;;;491011;242;1191;-75
2022/11/17 03:36:40;;;;;;;;;;;24.00;36.00;;;;;;490883;242;1187;-75
2022/11/17 03:38:41;;;;;;;;;;;24.00;36.30;;;;;;490876;242;1176;-75
2022/11/17 03:40:43;;;;;;;;;;;23.90;36.30;;;;;;491033;242;2137;-75
2022/11/17 03:42:44;;;;;;;;;;;23.90;36.00;;;;;;490910;242;1185;-75
2022/11/17 03:44:45;;;;;;;;;;;23.90;36.40;;;;;;490945;242;1274;-75
2022/11/17 03:46:47;;;;;;;;;;;23.80;36.50;;;;;;490855;242;1175;-75
2022/11/17 03:48:48;;;;;;;;;;;23.80;36.20;;;;;;490983;242;1184;-74
2022/11/17 03:50:49;;;;;;;;;;;23.70;36.40;;;;;;490968;242;1153;-75
2022/11/17 03:52:51;;;;;;;;;;;23.40;37.20;;;;;;491077;242;1175;-75
2022/11/17 03:54:52;;;;;;;;;;;23.30;37.10;;;;;;490954;242;1153;-75
2022/11/17 03:56:53;;;;;;;;;;;23.30;37.80;;;;;;490969;242;1192;-75
2022/11/17 03:58:54;;;;;;;;;;;23.20;37.60;;;;;;491051;242;1186;-75
2022/11/17 04:00:56;;;;;;;;;;;23.20;37.20;;;;;;490824;242;2180;-75
2022/11/17 04:02:58;;;;;;;;;;;23.20;37.90;;;;;;490880;242;1142;-75
2022/11/17 04:05:05;;;;;;;;;;;23.20;37.70;;;;;;490985;242;1184;-75
2022/11/17 04:07:06;;;;;;;;;;;23.20;37.90;;;;;;490994;242;1181;-75
2022/11/17 04:09:08;;;;;;;;;;;23.20;37.50;;;;;;490887;242;1138;-75
2022/11/17 04:15:57;;;;;;;;;;;23.40;37.30;;;;;;490998;243;1253;-74
2022/11/17 04:17:57;;;;;;;;;;;23.40;37.10;;;;;;490820;242;1426;-74
2022/11/17 04:19:59;;;;;;;;;;;23.40;37.70;;;;;;490986;242;2156;-75
2022/11/17 04:22:00;;;;;;;;;;;23.40;37.80;;;;;;490986;242;1184;-75
2022/11/17 04:24:01;;;;;;;;;;;23.50;37.10;;;;;;490852;242;1253;-74
2022/11/17 04:30:52;;;;;;;;;;;24.00;36.70;;;;;;486251;243;1188;-74
2022/11/17 04:32:53;;;;;;;;;;;24.10;36.30;;;;;;490935;242;1207;-75
2022/11/17 04:34:55;;;;;;;;;;;24.30;36.40;;;;;;490915;242;1261;-74
2022/11/17 04:36:56;;;;;;;;;;;24.40;36.20;;;;;;490864;242;1413;-74
2022/11/17 04:38:57;;;;;;;;;;;24.50;36.00;;;;;;490938;242;1193;-74
2022/11/17 04:43:18;;;;;;;;;;;24.60;35.80;;;;;;490870;243;1236;-74
2022/11/17 04:45:19;;;;;;;;;;;24.60;35.80;;;;;;490870;242;1185;-74
2022/11/17 04:47:21;;;;;;;;;;;24.60;36.00;;;;;;490939;242;1263;-74
2022/11/17 04:49:22;;;;;;;;;;;24.60;35.60;;;;;;490890;242;1579;-74
2022/11/17 04:51:23;;;;;;;;;;;24.60;36.30;;;;;;490935;242;1214;-74
2022/11/17 04:53:25;;;;;;;;;;;24.60;35.90;;;;;;490942;242;1231;-74
2022/11/17 04:55:26;;;;;;;;;;;24.50;36.40;;;;;;490783;242;1156;-74
2022/11/17 04:57:27;;;;;;;;;;;24.60;36.00;;;;;;490980;242;1143;-74
2022/11/17 04:59:29;;;;;;;;;;;24.50;36.50;;;;;;490870;242;2193;-74
2022/11/17 05:01:30;;;;;;;;;;;24.40;36.20;;;;;;490921;242;1193;-74
2022/11/17 05:03:31;;;;;;;;;;;24.40;36.10;;;;;;490894;242;1171;-74
2022/11/17 05:05:33;;;;;;;;;;;24.40;36.10;;;;;;490940;242;1123;-74
2022/11/17 05:07:34;;;;;;;;;;;24.40;36.20;;;;;;490953;242;1166;-74
2022/11/17 05:09:35;;;;;;;;;;;24.30;36.70;;;;;;491036;242;1120;-74
2022/11/17 05:13:56;;;;;;;;;;;24.30;36.60;;;;;;491054;243;1161;-74
2022/11/17 05:18:17;;;;;;;;;;;24.20;36.50;;;;;;491023;243;1678;-74
2022/11/17 05:20:18;;;;;;;;;;;24.20;36.70;;;;;;491069;242;2192;-74
2022/11/17 05:24:39;;;;;;;;;;;24.10;36.70;;;;;;491011;243;1247;-74
2022/11/17 05:26:40;;;;;;;;;;;24.00;36.50;;;;;;490982;242;1175;-74
2022/11/17 05:28:41;;;;;;;;;;;24.00;36.50;;;;;;490832;242;1214;-74
2022/11/17 05:30:43;;;;;;;;;;;24.00;36.40;;;;;;490860;242;1200;-74
2022/11/17 05:32:44;;;;;;;;;;;24.00;36.50;;;;;;490934;242;1177;-74
2022/11/17 05:34:45;;;;;;;;;;;23.90;36.40;;;;;;490936;242;1195;-74
2022/11/17 05:36:46;;;;;;;;;;;23.90;36.50;;;;;;490888;242;1204;-74
2022/11/17 05:38:48;;;;;;;;;;;23.90;36.50;;;;;;490732;242;1404;-74
2022/11/17 05:40:49;;;;;;;;;;;23.80;36.40;;;;;;490876;242;2184;-74
2022/11/17 05:42:50;;;;;;;;;;;23.70;36.50;;;;;;490961;242;1120;-74
2022/11/17 05:44:52;;;;;;;;;;;23.70;36.50;;;;;;490827;242;1175;-75
2022/11/17 05:46:53;;;;;;;;;;;23.40;36.70;;;;;;490859;242;1182;-75
2022/11/17 05:48:54;;;;;;;;;;;23.30;36.80;;;;;;490758;242;1194;-75
2022/11/17 05:50:56;;;;;;;;;;;23.30;36.90;;;;;;490876;242;1279;-75
2022/11/17 05:52:57;;;;;;;;;;;23.30;36.90;;;;;;490950;242;1310;-75
2022/11/17 05:54:58;;;;;;;;;;;23.30;36.90;;;;;;490759;242;1191;-74
2022/11/17 05:57:00;;;;;;;;;;;23.30;36.90;;;;;;490923;242;1249;-75
2022/11/17 05:59:01;;;;;;;;;;;23.30;37.20;;;;;;490855;242;1228;-75
2022/11/17 06:01:02;;;;;;;;;;;23.30;37.30;;;;;;490719;242;2149;-75
2022/11/17 06:03:04;;;;;;;;;;;23.40;38.40;;;;;;490666;242;1268;-74
2022/11/17 06:05:05;;;;;;;;;;;23.40;37.80;;;;;;490790;242;1175;-74
2022/11/17 06:07:06;;;;;;;;;;;23.50;38.00;;;;;;490839;242;1160;-74
2022/11/17 06:09:08;;;;;;;;;;;23.50;37.90;;;;;;490772;242;1164;-74
2022/11/17 06:11:09;;;;;;;;;;;23.50;38.30;;;;;;490781;242;1212;-74
2022/11/17 06:13:10;;;;;;;;;;;23.60;37.80;;;;;;490804;242;1223;-74
2022/11/17 06:15:12;;;;;;;;;;;23.60;37.60;;;;;;490863;242;1188;-74
2022/11/17 06:17:13;;;;;;;;;;;23.60;38.00;;;;;;490830;242;1207;-74
2022/11/17 06:19:14;;;;;;;;;;;23.70;37.50;;;;;;490811;242;1198;-74
2022/11/17 06:21:16;;;;;;;;;;;23.70;37.10;;;;;;490883;242;2153;-75
2022/11/17 06:23:17;;;;;;;;;;;23.70;37.10;;;;;;490696;242;1397;-74
2022/11/17 06:25:18;;;;;;;;;;;23.70;36.90;;;;;;490841;242;1314;-74
2022/11/17 06:27:19;;;;;;;;;;;23.70;36.80;;;;;;490919;242;1126;-74
2022/11/17 06:29:21;;;;;;;;;;;23.80;36.70;;;;;;490804;242;1125;-74
2022/11/17 06:31:22;;;;;;;;;;;23.80;36.60;;;;;;490774;242;1158;-74
2022/11/17 06:33:24;;;;;;;;;;;23.80;36.50;;;;;;490824;242;1198;-74
2022/11/17 06:35:25;;;;;;;;;;;23.80;36.40;;;;;;490829;242;1556;-75
2022/11/17 06:37:26;;;;;;;;;;;23.90;36.40;;;;;;490969;242;1215;-75
2022/11/17 06:39:27;;;;;;;;;;;23.90;36.30;;;;;;490957;242;1170;-75
2022/11/17 06:41:29;;;;;;;;;;;23.90;36.10;;;;;;490989;242;2153;-75
2022/11/17 06:43:30;;;;;;;;;;;24.00;36.00;;;;;;490752;242;1312;-74
2022/11/17 06:45:31;;;;;;;;;;;24.00;35.90;;;;;;490734;242;1141;-74
2022/11/17 06:47:33;;;;;;;;;;;24.10;35.80;;;;;;490924;242;1117;-74
2022/11/17 06:49:34;;;;;;;;;;;24.10;35.70;;;;;;490826;242;1216;-74
2022/11/17 06:51:35;;;;;;;;;;;24.20;35.50;;;;;;490883;242;1356;-74
2022/11/17 06:53:37;;;;;;;;;;;24.30;35.50;;;;;;490901;242;1171;-74
2022/11/17 06:55:38;;;;;;;;;;;24.30;35.30;;;;;;490813;242;1401;-74
2022/11/17 06:57:39;;;;;;;;;;;24.40;35.30;;;;;;490916;242;1154;-74
2022/11/17 06:59:41;;;;;;;;;;;24.50;35.20;;;;;;490749;242;1094;-74
2022/11/17 07:01:42;;;;;;;;;;;24.60;35.20;;;;;;490803;242;2188;-74
2022/11/17 07:03:43;;;;;;;;;;;24.60;35.30;;;;;;490822;242;1274;-74
2022/11/17 07:05:45;;;;;;;;;;;24.60;36.10;;;;;;490663;242;1098;-74
2022/11/17 07:07:46;;;;;;;;;;;24.60;36.20;;;;;;490672;242;1263;-74
2022/11/17 07:09:47;;;;;;;;;;;24.70;36.40;;;;;;490519;242;1234;-74
2022/11/17 07:11:49;;;;;;;;;;;24.60;36.30;;;;;;490668;242;1225;-74
2022/11/17 07:13:50;;;;;;;;;;;24.60;36.00;;;;;;490664;242;1165;-75
2022/11/17 07:15:51;;;;;;;;;;;24.60;36.00;;;;;;490618;242;1158;-75
2022/11/17 07:17:52;;;;;;;;;;;24.60;36.00;;;;;;490650;242;1280;-75
2022/11/17 07:19:54;;;;;;;;;;;24.50;36.00;;;;;;490399;242;1193;-74
2022/11/17 07:21:55;;;;;;;;;;;24.40;36.00;;;;;;490635;242;2196;-74
2022/11/17 07:23:56;;;;;;;;;;;24.40;35.90;;;;;;490609;242;1199;-74
2022/11/17 07:25:58;;;;;;;;;;;24.30;35.80;;;;;;490842;242;1169;-74
2022/11/17 07:27:59;;;;;;;;;;;24.30;35.90;;;;;;490798;242;1192;-74
2022/11/17 07:30:01;;;;;;;;;;;24.30;35.90;;;;;;490872;242;1241;-75
2022/11/17 07:32:02;;;;;;;;;;;24.10;36.00;;;;;;490742;242;1331;-75
2022/11/17 07:34:03;;;;;;;;;;;24.10;36.00;;;;;;490719;242;1188;-75
2022/11/17 07:36:05;;;;;;;;;;;24.00;36.00;;;;;;490418;242;1221;-74
2022/11/17 07:38:07;;;;;;;;;;;24.00;36.10;;;;;;490735;242;1264;-74
2022/11/17 07:40:07;;;;;;;;;;;24.00;36.10;;;;;;490644;243;1528;-74
2022/11/17 07:42:09;;;;;;;;;;;23.90;36.10;;;;;;490669;242;2181;-74
2022/11/17 07:44:10;;;;;;;;;;;23.90;36.10;;;;;;489790;242;1196;-74
2022/11/17 07:46:11;;;;;;;;;;;23.90;36.10;;;;;;489960;242;1554;-74
2022/11/17 07:48:13;;;;;;;;;;;23.80;36.20;;;;;;490335;242;1153;-74
2022/11/17 07:50:14;;;;;;;;;;;23.80;36.30;;;;;;490036;242;1255;-74
2022/11/17 07:52:15;;;;;;;;;;;23.70;36.30;;;;;;490124;242;1197;-74
2022/11/17 07:54:17;;;;;;;;;;;23.70;36.30;;;;;;490319;242;1607;-74
2022/11/17 07:56:18;;;;;;;;;;;23.70;36.30;;;;;;490493;242;1218;-74
2022/11/17 07:58:19;;;;;;;;;;;23.60;36.30;;;;;;490599;242;1157;-74
2022/11/17 08:00:21;;;;;;;;;;;23.40;36.60;;;;;;490426;242;2184;-75
2022/11/17 08:02:22;;;;;;;;;;;23.40;36.90;;;;;;490211;242;1141;-74
2022/11/17 08:04:23;;;;;;;;;;;23.30;36.80;;;;;;490366;242;1180;-74
2022/11/17 08:06:25;;;;;;;;;;;23.30;36.80;;;;;;490545;242;1225;-74
2022/11/17 08:08:26;;;;;;;;;;;23.30;36.90;;;;;;490490;242;1513;-74
2022/11/17 08:10:30;;;;;;;;;;;23.30;36.90;;;;;;490574;242;1166;-74
2022/11/17 08:12:29;;;;;;;;;;;23.30;37.00;;;;;;490420;243;1447;-74
2022/11/17 08:14:30;;;;;;;;;;;23.20;37.00;;;;;;490278;242;1219;-74
2022/11/17 08:16:32;;;;;;;;;;;23.30;37.10;;;;;;490486;242;1216;-74
2022/11/17 08:18:33;;;;;;;;;;;23.30;37.00;;;;;;490198;242;1159;-74
2022/11/17 08:20:34;;;;;;;;;;;23.30;37.00;;;;;;490305;242;2245;-74
2022/11/17 08:22:35;;;;;;;;;;;23.30;37.10;;;;;;490301;242;1213;-74
2022/11/17 08:24:37;;;;;;;;;;;23.30;37.10;;;;;;490192;242;1177;-74
2022/11/17 08:26:38;;;;;;;;;;;23.30;37.00;;;;;;490446;242;1186;-74
2022/11/17 08:28:39;;;;;;;;;;;23.30;37.10;;;;;;490530;242;1227;-74
2022/11/17 08:30:41;;;;;;;;;;;23.40;37.00;;;;;;490546;242;1350;-74
2022/11/17 08:32:42;;;;;;;;;;;23.40;37.00;;;;;;490377;242;1317;-74
2022/11/17 08:34:43;;;;;;;;;;;23.40;37.00;;;;;;490644;242;1287;-74
2022/11/17 08:36:45;;;;;;;;;;;23.40;37.00;;;;;;490285;242;1139;-74
2022/11/17 08:38:46;;;;;;;;;;;23.40;37.00;;;;;;490490;242;1165;-74
2022/11/17 08:40:47;;;;;;;;;;;23.50;37.00;;;;;;490456;242;2188;-74
2022/11/17 08:42:49;;;;;;;;;;;23.50;36.90;;;;;;490551;242;1130;-74
2022/11/17 08:44:50;;;;;;;;;;;23.60;36.90;;;;;;490517;242;1190;-74
2022/11/17 08:46:51;;;;;;;;;;;23.60;36.90;;;;;;490597;242;1169;-74
2022/11/17 08:48:53;;;;;;;;;;;23.60;36.90;;;;;;490559;242;1176;-74
2022/11/17 08:50:54;;;;;;;;;;;23.70;36.90;;;;;;490601;242;1228;-74
2022/11/17 08:52:55;;;;;;;;;;;23.70;36.90;;;;;;490524;242;1203;-74
2022/11/17 08:54:57;;;;;;;;;;;23.70;36.80;;;;;;490565;242;1184;-74
2022/11/17 08:56:58;;;;;;;;;;;23.80;36.80;;;;;;490482;242;1267;-74
2022/11/17 08:58:59;;;;;;;;;;;23.80;36.80;;;;;;490568;242;1203;-74
2022/11/17 09:01:01;;;;;;;;;;;23.80;36.90;;;;;;490491;242;2180;-74
2022/11/17 09:03:02;;;;;;;;;;;23.90;36.80;;;;;;490634;242;1430;-74
2022/11/17 09:05:03;;;;;;;;;;;23.90;36.70;;;;;;490590;242;1280;-74
2022/11/17 09:07:05;;;;;;;;;;;23.90;36.80;;;;;;490311;242;1144;-74
2022/11/17 09:09:06;;;;;;;;;;;23.80;36.80;;;;;;490412;242;1147;-74
2022/11/17 09:11:07;;;;;;;;;;;23.90;36.90;;;;;;490152;242;1152;-74
2022/11/17 09:13:09;;;;;;;;;;;23.90;36.80;;;;;;490141;242;1153;-74
2022/11/17 09:15:10;;;;;;;;;;;23.90;36.90;;;;;;490413;242;1275;-75
2022/11/17 09:17:11;;;;;;;;;;;23.90;36.90;;;;;;490333;242;1214;-74
2022/11/17 09:19:13;;;;;;;;;;;23.90;36.90;;;;;;490362;242;1184;-74
2022/11/17 09:21:14;;;;;;;;;;;24.00;36.90;;;;;;490157;242;2192;-74
2022/11/17 09:23:16;;;;;;;;;;;24.00;36.70;;;;;;490600;242;1194;-74
2022/11/17 09:25:17;;;;;;;;;;;24.00;36.90;;;;;;490665;242;1123;-74
2022/11/17 09:27:18;;;;;;;;;;;24.00;36.80;;;;;;490230;242;1134;-74
2022/11/17 09:29:20;;;;;;;;;;;24.00;37.00;;;;;;490563;242;1248;-74
2022/11/17 09:31:21;;;;;;;;;;;24.00;37.20;;;;;;490409;242;1196;-74
2022/11/17 09:33:22;;;;;;;;;;;24.10;37.10;;;;;;490510;242;1256;-74
2022/11/17 09:35:24;;;;;;;;;;;24.00;37.10;;;;;;490479;242;1251;-74
2022/11/17 09:37:26;;;;;;;;;;;24.00;37.20;;;;;;490610;242;1152;-74
2022/11/17 09:39:26;;;;;;;;;;;24.00;37.20;;;;;;490476;243;1279;-74
2022/11/17 09:41:28;;;;;;;;;;;24.10;37.30;;;;;;490587;242;2196;-74
2022/11/17 09:43:29;;;;;;;;;;;24.00;37.40;;;;;;490550;242;1198;-74
2022/11/17 09:45:30;;;;;;;;;;;24.10;37.50;;;;;;490689;242;1234;-74
2022/11/17 09:47:32;;;;;;;;;;;24.10;37.60;;;;;;490595;242;1179;-74
2022/11/17 09:49:33;;;;;;;;;;;24.10;37.70;;;;;;490416;242;1168;-74
2022/11/17 09:51:35;;;;;;;;;;;24.10;37.70;;;;;;490609;242;1098;-74
2022/11/17 09:53:36;;;;;;;;;;;24.10;38.00;;;;;;490424;242;1149;-74
2022/11/17 09:55:37;;;;;;;;;;;24.10;38.10;;;;;;490511;242;1160;-74
2022/11/17 09:57:39;;;;;;;;;;;24.10;38.00;;;;;;490499;242;1348;-74
2022/11/17 09:59:40;;;;;;;;;;;24.10;38.10;;;;;;490392;242;1174;-74
2022/11/17 10:01:41;;;;;;;;;;;24.10;38.10;;;;;;490527;242;2192;-74
2022/11/17 10:03:43;;;;;;;;;;;24.00;38.20;;;;;;490548;242;1156;-74
2022/11/17 10:05:44;;;;;;;;;;;24.10;38.30;;;;;;490471;242;1206;-74
2022/11/17 10:07:46;;;;;;;;;;;24.10;38.30;;;;;;490297;242;1136;-74
2022/11/17 10:09:47;;;;;;;;;;;24.10;38.30;;;;;;489813;242;1099;-74
2022/11/17 10:11:49;;;;;;;;;;;24.10;38.40;;;;;;489950;242;1216;-74
2022/11/17 10:13:50;;;;;;;;;;;24.00;38.60;;;;;;490067;242;1083;-74
2022/11/17 10:15:51;;;;;;;;;;;24.00;38.70;;;;;;490281;242;1113;-74
2022/11/17 10:17:53;;;;;;;;;;;24.00;38.80;;;;;;490615;242;1240;-74
2022/11/17 10:19:54;;;;;;;;;;;23.90;38.80;;;;;;490216;242;1200;-74
2022/11/17 10:21:55;;;;;;;;;;;23.90;38.90;;;;;;490269;242;2149;-74
2022/11/17 10:23:57;;;;;;;;;;;23.90;38.90;;;;;;490208;242;1193;-74
2022/11/17 10:25:58;;;;;;;;;;;23.90;39.10;;;;;;490498;242;1181;-74
2022/11/17 10:27:59;;;;;;;;;;;23.90;39.20;;;;;;490525;242;1156;-74
2022/11/17 10:30:01;;;;;;;;;;;23.80;39.30;;;;;;490541;242;1266;-74
2022/11/17 10:32:02;;;;;;;;;;;23.90;39.40;;;;;;490617;242;1167;-74
2022/11/17 10:34:03;;;;;;;;;;;23.80;39.50;;;;;;490388;242;1263;-74
2022/11/17 10:36:05;;;;;;;;;;;23.80;39.50;;;;;;490169;242;1163;-74
2022/11/17 10:38:06;;;;;;;;;;;23.70;39.50;;;;;;490261;242;1267;-74
2022/11/17 10:40:07;;;;;;;;;;;23.70;39.70;;;;;;490231;242;1184;-74
2022/11/17 10:42:09;;;;;;;;;;;23.60;39.70;;;;;;490324;242;2177;-74
2022/11/17 10:44:10;;;;;;;;;;;23.60;40.00;;;;;;490467;242;1180;-74
2022/11/17 10:46:11;;;;;;;;;;;23.60;40.00;;;;;;490391;242;1327;-74
2022/11/17 10:48:13;;;;;;;;;;;23.70;40.10;;;;;;490580;242;1210;-74
2022/11/17 10:50:14;;;;;;;;;;;23.70;40.10;;;;;;490434;242;1396;-74
2022/11/17 10:52:15;;;;;;;;;;;23.70;40.20;;;;;;490371;242;1126;-74
2022/11/17 10:54:17;;;;;;;;;;;23.70;40.10;;;;;;490466;242;1210;-74
2022/11/17 10:56:18;;;;;;;;;;;23.70;40.20;;;;;;490297;242;1218;-74
2022/11/17 10:58:19;;;;;;;;;;;23.70;40.30;;;;;;490350;242;1203;-74
2022/11/17 11:00:21;;;;;;;;;;;23.70;40.40;;;;;;490554;242;1227;-74
2022/11/17 11:02:22;;;;;;;;;;;23.90;40.30;;;;;;490373;242;2188;-74
2022/11/17 11:04:23;;;;;;;;;;;23.90;40.20;;;;;;490430;242;1198;-74
2022/11/17 11:06:25;;;;;;;;;;;23.90;40.20;;;;;;490516;242;1392;-74
2022/11/17 11:08:26;;;;;;;;;;;23.90;40.20;;;;;;490462;242;1092;-74
2022/11/17 11:10:27;;;;;;;;;;;23.90;40.30;;;;;;490368;242;1133;-74
2022/11/17 11:12:29;;;;;;;;;;;23.90;40.50;;;;;;490390;242;1151;-74
2022/11/17 11:14:30;;;;;;;;;;;23.90;40.50;;;;;;490521;242;1363;-74
2022/11/17 11:16:32;;;;;;;;;;;23.90;40.50;;;;;;490560;242;1191;-74
2022/11/17 11:18:33;;;;;;;;;;;23.90;40.60;;;;;;490425;242;1193;-74
2022/11/17 11:20:34;;;;;;;;;;;23.90;40.60;;;;;;490264;242;1257;-74
2022/11/17 11:22:36;;;;;;;;;;;23.90;40.80;;;;;;490625;242;2164;-74
2022/11/17 11:24:37;;;;;;;;;;;23.90;40.70;;;;;;490624;242;1163;-74
2022/11/17 11:26:38;;;;;;;;;;;23.90;40.70;;;;;;490302;242;1200;-74
2022/11/17 11:28:40;;;;;;;;;;;23.70;40.70;;;;;;490523;242;1125;-74
2022/11/17 11:30:41;;;;;;;;;;;23.70;41.10;;;;;;490601;242;1159;-74
2022/11/17 11:32:42;;;;;;;;;;;23.70;41.10;;;;;;490306;242;1244;-74
2022/11/17 11:34:44;;;;;;;;;;;23.70;41.10;;;;;;490351;242;1179;-74
2022/11/17 11:36:45;;;;;;;;;;;23.70;41.10;;;;;;490484;242;1191;-74
2022/11/17 11:38:46;;;;;;;;;;;23.70;41.10;;;;;;490104;242;1071;-74
2022/11/17 11:40:48;;;;;;;;;;;23.70;41.10;;;;;;490283;242;1132;-74
2022/11/17 11:42:49;;;;;;;;;;;23.70;41.00;;;;;;490264;242;2181;-74
2022/11/17 11:44:50;;;;;;;;;;;23.70;40.90;;;;;;490308;242;1543;-74
2022/11/17 11:46:52;;;;;;;;;;;23.70;40.90;;;;;;490387;242;1152;-74
2022/11/17 11:48:53;;;;;;;;;;;23.90;40.90;;;;;;490468;242;1300;-74
2022/11/17 11:50:54;;;;;;;;;;;23.90;40.70;;;;;;490346;242;1194;-74
2022/11/17 11:52:56;;;;;;;;;;;23.90;40.50;;;;;;490613;242;1147;-74
2022/11/17 11:54:57;;;;;;;;;;;23.90;40.60;;;;;;490635;242;1183;-74
2022/11/17 11:56:58;;;;;;;;;;;23.90;40.60;;;;;;490545;242;1194;-74
2022/11/17 11:59:00;;;;;;;;;;;23.90;40.60;;;;;;490592;242;1192;-74
2022/11/17 12:01:01;;;;;;;;;;;24.00;40.60;;;;;;490697;242;1179;-74
2022/11/17 12:03:02;;;;;;;;;;;24.00;40.60;;;;;;490643;242;2173;-74
2022/11/17 12:05:04;;;;;;;;;;;24.00;40.60;;;;;;490531;242;1178;-73
2022/11/17 12:07:05;;;;;;;;;;;24.00;40.70;;;;;;490667;242;1202;-73
2022/11/17 12:09:06;;;;;;;;;;;23.90;40.80;;;;;;490616;242;1145;-73
2022/11/17 12:11:59;;;;;;;;;;;23.90;40.80;;;;;;490540;242;1250;-73
2022/11/17 12:13:09;;;;;;;;;;;23.90;40.90;;;;;;488992;243;1269;-73
2022/11/17 12:15:11;;;;;;;;;;;23.90;41.00;;;;;;490573;242;1182;-73
2022/11/17 12:17:12;;;;;;;;;;;23.90;41.00;;;;;;490531;242;1127;-73
2022/11/17 12:19:13;;;;;;;;;;;23.90;41.10;;;;;;490494;242;1218;-74
2022/11/17 12:21:15;;;;;;;;;;;23.80;41.10;;;;;;490547;242;1212;-74
2022/11/17 12:23:16;;;;;;;;;;;23.80;41.20;;;;;;490528;242;2188;-74
2022/11/17 12:25:17;;;;;;;;;;;23.80;41.20;;;;;;490570;242;1165;-73